Time;durP1;ratioP1;P1;durP2;ratioP2;P2;SDS_P1;SDS_P2;PMS_P1;PMS_P2;Temp;Humidity;BMP_temperature;BMP_pressure;BME280_temperature;BME280_humidity;BME280_pressure;Samples;Min_cycle;Max_cycle;Signal;HPM_P1;HPM_P2
2022/08/05 00:01:43;;;;;;;11.40;5.55;;;17.80;99.90;;;;;;5028722;28;20041;-73
2022/08/05 00:04:09;;;;;;;10.10;6.40;;;17.70;99.90;;;;;;5025521;28;21585;-73
2022/08/05 00:06:35;;;;;;;9.88;5.82;;;17.70;99.90;;;;;;5038206;28;20044;-73
2022/08/05 00:09:01;;;;;;;11.50;6.38;;;17.60;99.90;;;;;;5036163;28;21220;-73
2022/08/05 00:11:27;;;;;;;13.85;7.03;;;17.60;99.90;;;;;;5045865;28;20076;-73
2022/08/05 00:13:53;;;;;;;12.65;6.20;;;17.60;99.90;;;;;;5040658;28;20423;-73
2022/08/05 00:16:19;;;;;;;13.82;6.25;;;17.60;99.90;;;;;;5042376;28;20083;-73
2022/08/05 00:18:46;;;;;;;15.90;7.20;;;17.60;99.90;;;;;;5034139;28;20279;-73
2022/08/05 00:21:14;;;;;;;12.02;6.22;;;17.60;99.90;;;;;;5037764;28;20040;-73
2022/08/05 00:23:41;;;;;;;12.88;6.40;;;17.50;99.90;;;;;;5060455;28;20043;-73
2022/08/05 00:26:07;;;;;;;9.50;6.60;;;17.50;99.90;;;;;;5040811;28;20493;-71
2022/08/05 00:28:34;;;;;;;10.15;6.38;;;17.50;99.90;;;;;;5024652;28;20028;-72
2022/08/05 00:31:00;;;;;;;14.68;6.75;;;17.50;99.90;;;;;;5024905;28;20056;-72
2022/08/05 00:33:25;;;;;;;12.43;6.75;;;17.50;99.90;;;;;;5044532;28;20086;-72
2022/08/05 00:35:51;;;;;;;10.60;5.72;;;17.50;99.90;;;;;;5005159;28;20094;-72
2022/08/05 00:38:17;;;;;;;15.80;7.18;;;17.50;99.90;;;;;;5021668;28;20039;-72
2022/08/05 00:40:48;;;;;;;10.35;6.88;;;17.50;99.90;;;;;;5043341;28;20065;-72
2022/08/05 00:43:14;;;;;;;15.70;7.13;;;17.50;99.90;;;;;;5039888;28;20047;-73
2022/08/05 00:45:40;;;;;;;14.52;7.15;;;17.50;99.90;;;;;;5025396;28;20170;-72
2022/08/05 00:48:07;;;;;;;10.50;6.47;;;17.50;99.90;;;;;;5038020;28;20127;-72
2022/08/05 00:50:33;;;;;;;12.75;6.40;;;17.40;99.90;;;;;;5031227;28;20518;-72
2022/08/05 00:52:58;;;;;;;10.30;6.72;;;17.50;99.90;;;;;;5030643;28;20076;-72
2022/08/05 00:55:24;;;;;;;14.80;7.35;;;17.50;99.90;;;;;;5035005;28;20083;-72
2022/08/05 00:57:50;;;;;;;12.10;6.95;;;17.50;99.90;;;;;;5027311;28;20032;-72
2022/08/05 01:00:18;;;;;;;17.08;6.80;;;17.50;99.90;;;;;;5029468;28;20028;-72
2022/08/05 01:02:44;;;;;;;10.30;6.97;;;17.50;99.90;;;;;;5047602;28;20078;-72
2022/08/05 01:05:11;;;;;;;19.10;8.35;;;17.60;99.90;;;;;;5029426;28;20135;-72
2022/08/05 01:07:37;;;;;;;12.85;7.55;;;17.50;99.90;;;;;;5029806;28;20039;-72
2022/08/05 01:10:06;;;;;;;11.93;7.45;;;17.60;99.90;;;;;;5027829;28;20485;-72
2022/08/05 01:12:33;;;;;;;11.88;7.32;;;17.60;99.90;;;;;;5008866;28;20057;-72
2022/08/05 01:15:03;;;;;;;12.45;7.28;;;17.60;99.90;;;;;;5029843;28;20202;-72
2022/08/05 01:17:48;;;;;;;13.30;6.97;;;17.50;99.90;;;;;;5023699;28;20048;-72
2022/08/05 01:20:35;;;;;;;13.98;7.82;;;17.50;99.90;;;;;;5047495;28;20341;-72
2022/08/05 01:23:26;;;;;;;12.43;7.80;;;17.60;99.90;;;;;;5040668;28;20094;-72
2022/08/05 01:26:20;;;;;;;12.38;8.45;;;17.50;99.90;;;;;;5027352;28;20044;-72
2022/08/05 01:28:50;;;;;;;13.57;7.22;;;17.60;99.90;;;;;;5044027;28;20055;-72
2022/08/05 01:31:29;;;;;;;15.98;7.68;;;17.60;99.90;;;;;;5046124;28;20044;-72
2022/08/05 01:34:11;;;;;;;13.50;7.60;;;17.60;99.90;;;;;;5034144;28;20110;-72
2022/08/05 01:36:43;;;;;;;15.10;8.17;;;17.60;99.90;;;;;;5046125;28;20059;-72
2022/08/05 01:39:12;;;;;;;10.32;7.82;;;17.60;99.90;;;;;;5046342;28;20041;-72
2022/08/05 01:41:39;;;;;;;8.23;7.07;;;17.60;99.90;;;;;;5061092;28;20051;-72
2022/08/05 01:44:07;;;;;;;10.57;7.10;;;17.50;99.90;;;;;;5023213;28;20325;-72
2022/08/05 01:46:34;;;;;;;12.85;7.75;;;17.50;99.90;;;;;;5043116;28;20052;-72
2022/08/05 01:49:03;;;;;;;13.38;8.15;;;17.50;99.90;;;;;;5024957;28;20058;-72
2022/08/05 01:51:34;;;;;;;13.75;8.18;;;17.50;99.90;;;;;;5021612;28;20036;-72
2022/08/05 01:54:02;;;;;;;11.10;7.80;;;17.50;99.90;;;;;;5056797;28;20418;-72
2022/08/05 01:56:36;;;;;;;11.48;7.03;;;17.50;99.90;;;;;;5028228;28;20478;-72
2022/08/05 01:59:06;;;;;;;13.57;7.22;;;17.50;99.90;;;;;;5031855;28;20068;-72
2022/08/05 02:01:34;;;;;;;10.18;8.10;;;17.50;99.90;;;;;;5059004;28;20486;-72
2022/08/05 02:04:02;;;;;;;10.43;7.47;;;17.50;99.90;;;;;;5035031;28;20502;-72
2022/08/05 02:06:28;;;;;;;11.25;7.20;;;17.50;99.90;;;;;;5022087;28;20132;-72
2022/08/05 02:08:55;;;;;;;12.93;7.45;;;17.40;99.90;;;;;;5041991;28;20127;-72
2022/08/05 02:11:21;;;;;;;11.27;7.10;;;17.40;99.90;;;;;;5043795;28;20366;-72
2022/08/05 02:14:11;;;;;;;13.60;8.13;;;17.40;99.90;;;;;;5025346;28;20128;-72
2022/08/05 02:16:54;;;;;;;9.50;7.82;;;17.40;99.90;;;;;;5028556;28;20040;-72
2022/08/05 02:19:26;;;;;;;13.25;7.82;;;17.40;99.90;;;;;;5041483;28;20086;-72
2022/08/05 02:22:05;;;;;;;9.60;7.28;;;17.40;99.90;;;;;;5027962;28;20059;-71
2022/08/05 02:24:37;;;;;;;10.85;8.13;;;17.40;99.90;;;;;;5059002;28;20036;-72
2022/08/05 02:27:07;;;;;;;10.80;7.55;;;17.40;99.90;;;;;;5037219;28;20248;-72
2022/08/05 02:29:35;;;;;;;11.52;7.65;;;17.40;99.90;;;;;;5056235;28;20046;-72
2022/08/05 02:32:03;;;;;;;16.05;7.35;;;17.40;99.90;;;;;;5043284;28;20116;-72
2022/08/05 02:34:31;;;;;;;10.75;7.30;;;17.30;99.90;;;;;;5041083;28;20037;-72
2022/08/05 02:37:01;;;;;;;15.45;8.27;;;17.30;99.90;;;;;;5044651;28;20413;-72
2022/08/05 02:39:33;;;;;;;15.77;7.75;;;17.30;99.90;;;;;;5038597;28;20029;-72
2022/08/05 02:42:01;;;;;;;11.98;7.55;;;17.30;99.90;;;;;;5060995;28;20075;-71
2022/08/05 02:44:29;;;;;;;14.38;7.60;;;17.30;99.90;;;;;;5043921;28;20084;-72
2022/08/05 02:46:57;;;;;;;12.32;7.60;;;17.30;99.90;;;;;;5062807;28;20106;-72
2022/08/05 02:49:24;;;;;;;10.90;7.07;;;17.30;99.90;;;;;;5028431;28;20044;-72
2022/08/05 02:51:52;;;;;;;14.43;7.80;;;17.30;99.90;;;;;;5043316;28;20374;-72
2022/08/05 02:54:20;;;;;;;12.93;8.05;;;17.30;99.90;;;;;;5028436;28;20047;-72
2022/08/05 02:56:47;;;;;;;12.02;7.82;;;17.30;99.90;;;;;;5037056;28;20041;-72
2022/08/05 02:59:14;;;;;;;13.25;8.35;;;17.30;99.90;;;;;;5040366;28;20051;-72
2022/08/05 03:01:41;;;;;;;11.25;8.10;;;17.30;99.90;;;;;;5038683;28;20044;-72
2022/08/05 03:04:11;;;;;;;13.65;7.82;;;17.30;99.90;;;;;;5013185;28;20074;-71
2022/08/05 03:06:38;;;;;;;15.48;8.85;;;17.30;99.90;;;;;;5059244;28;20044;-72
2022/08/05 03:09:04;;;;;;;14.93;8.98;;;17.30;99.90;;;;;;5055451;28;20516;-72
2022/08/05 03:11:30;;;;;;;11.07;7.72;;;17.20;99.90;;;;;;5044830;28;20115;-72
2022/08/05 03:13:56;;;;;;;20.45;9.88;;;17.20;99.90;;;;;;5025158;28;20115;-72
2022/08/05 03:16:21;;;;;;;12.63;8.27;;;17.30;99.90;;;;;;5040560;28;20070;-72
2022/08/05 03:18:47;;;;;;;9.48;7.38;;;17.30;99.90;;;;;;5026349;28;20036;-72
2022/08/05 03:21:13;;;;;;;11.25;8.15;;;17.30;99.90;;;;;;5021055;28;20029;-72
2022/08/05 03:23:42;;;;;;;13.60;8.93;;;17.30;99.90;;;;;;5027169;28;20102;-72
2022/08/05 03:26:08;;;;;;;14.75;8.13;;;17.30;99.90;;;;;;5041998;28;21423;-72
2022/08/05 03:28:35;;;;;;;13.77;8.45;;;17.20;99.90;;;;;;5038831;28;20037;-72
2022/08/05 03:31:10;;;;;;;11.85;8.23;;;17.30;99.90;;;;;;5056308;27;20564;-72
2022/08/05 03:33:37;;;;;;;12.98;7.97;;;17.20;99.90;;;;;;5059271;28;20049;-72
2022/08/05 03:36:04;;;;;;;14.02;9.05;;;17.20;99.90;;;;;;5072702;28;20047;-72
2022/08/05 03:38:29;;;;;;;12.25;8.70;;;17.20;99.90;;;;;;5042350;28;20070;-72
2022/08/05 03:40:55;;;;;;;14.48;8.43;;;17.20;99.90;;;;;;5041650;28;20245;-72
2022/08/05 03:43:24;;;;;;;11.57;8.35;;;17.30;99.90;;;;;;5076033;28;20052;-72
2022/08/05 03:45:51;;;;;;;12.00;8.60;;;17.20;99.90;;;;;;5073662;28;20036;-72
2022/08/05 03:48:18;;;;;;;15.35;9.05;;;17.20;99.90;;;;;;5088396;28;20037;-72
2022/08/05 03:50:54;;;;;;;12.32;8.15;;;17.20;99.90;;;;;;5071473;28;20073;-73
2022/08/05 03:53:32;;;;;;;13.52;8.05;;;17.20;99.90;;;;;;5088355;28;20095;-72
2022/08/05 03:56:16;;;;;;;15.70;9.32;;;17.20;99.90;;;;;;5056740;28;20099;-72
2022/08/05 03:58:44;;;;;;;11.30;7.97;;;17.20;99.90;;;;;;5055685;28;20044;-72
2022/08/05 04:01:11;;;;;;;15.57;9.25;;;17.20;99.90;;;;;;5053356;28;20071;-72
2022/08/05 04:03:39;;;;;;;14.23;8.55;;;17.20;99.90;;;;;;5056234;28;20094;-72
2022/08/05 04:06:05;;;;;;;13.10;9.05;;;17.20;99.90;;;;;;5056368;28;20445;-72
2022/08/05 04:08:33;;;;;;;12.15;8.45;;;17.20;99.90;;;;;;5071676;28;20521;-72
2022/08/05 04:11:01;;;;;;;14.18;8.27;;;17.20;99.90;;;;;;5038811;28;20037;-72
2022/08/05 04:13:28;;;;;;;14.30;8.70;;;17.20;99.90;;;;;;5090655;28;20401;-72
2022/08/05 04:15:54;;;;;;;16.40;7.95;;;17.20;99.90;;;;;;5056819;28;20037;-72
2022/08/05 04:18:23;;;;;;;12.88;7.70;;;17.20;99.90;;;;;;5053787;28;20029;-73
2022/08/05 04:20:56;;;;;;;10.48;7.97;;;17.20;99.90;;;;;;5090555;28;20044;-72
2022/08/05 04:23:27;;;;;;;13.15;8.05;;;17.20;99.90;;;;;;5070563;28;20047;-72
2022/08/05 04:25:53;;;;;;;10.35;7.88;;;17.20;99.90;;;;;;5089534;28;20042;-72
2022/08/05 04:28:19;;;;;;;14.27;8.52;;;17.20;99.90;;;;;;5074140;28;20052;-72
2022/08/05 04:30:45;;;;;;;13.00;7.72;;;17.20;99.90;;;;;;5090685;28;20075;-72
2022/08/05 04:33:12;;;;;;;10.30;7.47;;;17.20;99.90;;;;;;5057727;28;20087;-72
2022/08/05 04:35:38;;;;;;;13.20;8.07;;;17.20;99.90;;;;;;5090651;28;20094;-73
2022/08/05 04:38:06;;;;;;;10.75;7.70;;;17.20;99.90;;;;;;5069888;28;20437;-73
2022/08/05 04:40:39;;;;;;;13.32;8.05;;;17.20;99.90;;;;;;5069715;28;20489;-73
2022/08/05 04:43:06;;;;;;;12.73;7.97;;;17.20;99.90;;;;;;5057432;28;20088;-72
2022/08/05 04:45:33;;;;;;;12.02;7.47;;;17.20;99.90;;;;;;5071730;28;20058;-73
2022/08/05 04:48:03;;;;;;;11.25;7.72;;;17.20;99.90;;;;;;5036973;28;20047;-73
2022/08/05 04:50:29;;;;;;;11.05;8.13;;;17.20;99.90;;;;;;5043225;28;20041;-73
2022/08/05 04:52:55;;;;;;;13.57;7.35;;;17.20;99.90;;;;;;5040655;28;20037;-73
2022/08/05 04:55:21;;;;;;;8.52;7.22;;;17.20;99.90;;;;;;5058535;28;20064;-73
2022/08/05 04:57:46;;;;;;;12.88;6.63;;;17.20;99.90;;;;;;5043673;28;20477;-72
2022/08/05 05:00:12;;;;;;;15.70;8.45;;;17.20;99.90;;;;;;5057501;28;20037;-73
2022/08/05 05:02:38;;;;;;;13.05;7.78;;;17.20;99.90;;;;;;5058784;28;20037;-72
2022/08/05 05:05:05;;;;;;;11.68;6.97;;;17.20;99.90;;;;;;5056743;28;20540;-73
2022/08/05 05:07:31;;;;;;;9.05;7.18;;;17.20;99.90;;;;;;5059266;28;20045;-73
2022/08/05 05:09:57;;;;;;;8.70;7.68;;;17.20;99.90;;;;;;5061224;28;20056;-73
2022/08/05 05:12:23;;;;;;;9.95;7.60;;;17.20;99.90;;;;;;5058173;28;20466;-72
2022/08/05 05:14:49;;;;;;;9.50;7.47;;;17.20;99.90;;;;;;5042453;28;20045;-72
2022/08/05 05:17:14;;;;;;;10.55;7.47;;;17.20;99.90;;;;;;5075392;28;20115;-73
2022/08/05 05:19:40;;;;;;;12.00;7.85;;;17.20;99.90;;;;;;5027703;28;20040;-73
2022/08/05 05:22:12;;;;;;;13.07;7.40;;;17.20;99.90;;;;;;5059712;28;20506;-73
2022/08/05 05:24:40;;;;;;;12.15;7.38;;;17.20;99.90;;;;;;5061830;28;20040;-73
2022/08/05 05:27:05;;;;;;;12.45;7.30;;;17.20;99.90;;;;;;5041056;28;20045;-73
2022/08/05 05:29:31;;;;;;;15.00;7.35;;;17.20;99.90;;;;;;5037183;28;20403;-73
2022/08/05 05:31:57;;;;;;;10.55;7.47;;;17.20;99.90;;;;;;5023344;28;20099;-73
2022/08/05 05:34:23;;;;;;;12.70;7.75;;;17.20;99.90;;;;;;5040756;28;20037;-73
2022/08/05 05:36:48;;;;;;;10.70;7.47;;;17.20;99.90;;;;;;5075915;28;20451;-73
2022/08/05 05:39:14;;;;;;;14.35;8.10;;;17.30;99.90;;;;;;5055097;28;20032;-73
2022/08/05 05:41:40;;;;;;;10.20;6.57;;;17.30;99.90;;;;;;5042678;28;20041;-73
2022/08/05 05:44:05;;;;;;;9.68;6.85;;;17.30;99.90;;;;;;5042213;28;20111;-73
2022/08/05 05:46:31;;;;;;;9.23;6.50;;;17.30;99.90;;;;;;5059787;28;20485;-73
2022/08/05 05:48:57;;;;;;;8.45;6.57;;;17.30;99.90;;;;;;5043011;28;20475;-73
2022/08/05 05:51:24;;;;;;;10.55;6.95;;;17.30;99.90;;;;;;5043172;28;20040;-73
2022/08/05 05:53:51;;;;;;;10.38;7.05;;;17.30;99.90;;;;;;5040116;28;20738;-73
2022/08/05 05:56:19;;;;;;;9.15;6.50;;;17.30;99.90;;;;;;5053958;28;20518;-73
2022/08/05 05:58:46;;;;;;;9.63;7.07;;;17.30;99.90;;;;;;5052942;28;20049;-73
2022/08/05 06:01:13;;;;;;;9.07;6.25;;;17.30;99.90;;;;;;5041403;28;20046;-73
2022/08/05 06:03:40;;;;;;;9.82;6.82;;;17.30;99.90;;;;;;5048342;28;20403;-73
2022/08/05 06:06:06;;;;;;;7.90;6.28;;;17.40;99.90;;;;;;5030283;28;20394;-73
2022/08/05 06:08:34;;;;;;;9.52;6.20;;;17.40;99.90;;;;;;5046485;28;20033;-73
2022/08/05 06:11:00;;;;;;;9.05;6.53;;;17.40;99.90;;;;;;5030329;28;20111;-73
2022/08/05 06:13:26;;;;;;;9.52;6.28;;;17.40;99.90;;;;;;5046548;28;20539;-73
2022/08/05 06:15:52;;;;;;;10.40;6.82;;;17.40;99.90;;;;;;5034542;28;20474;-72
2022/08/05 06:18:17;;;;;;;11.57;6.63;;;17.40;99.90;;;;;;5041962;28;20041;-72
2022/08/05 06:20:43;;;;;;;8.45;5.88;;;17.40;99.90;;;;;;5039839;28;20029;-72
2022/08/05 06:23:09;;;;;;;10.00;5.95;;;17.40;99.90;;;;;;5034196;28;20096;-73
2022/08/05 06:25:34;;;;;;;10.77;6.15;;;17.40;99.90;;;;;;5040151;28;20091;-73
2022/08/05 06:28:00;;;;;;;7.60;5.72;;;17.40;99.90;;;;;;5038483;28;20063;-73
2022/08/05 06:30:28;;;;;;;10.75;6.28;;;17.40;99.90;;;;;;5034760;28;20180;-73
2022/08/05 06:32:54;;;;;;;10.88;6.20;;;17.40;99.90;;;;;;5019042;28;20041;-73
2022/08/05 06:35:20;;;;;;;8.27;6.05;;;17.50;99.90;;;;;;5032889;28;20044;-73
2022/08/05 06:37:45;;;;;;;7.00;5.38;;;17.50;99.90;;;;;;5015835;28;20475;-72
2022/08/05 06:40:12;;;;;;;11.23;6.03;;;17.60;99.90;;;;;;5010083;28;20384;-73
2022/08/05 06:42:38;;;;;;;6.72;5.10;;;17.60;99.90;;;;;;4997878;28;20069;-73
2022/08/05 06:45:06;;;;;;;7.78;5.15;;;17.60;99.90;;;;;;4991959;28;20096;-73
2022/08/05 06:47:32;;;;;;;8.48;5.32;;;17.60;99.90;;;;;;5030562;28;20042;-73
2022/08/05 06:49:58;;;;;;;10.32;5.00;;;17.70;99.90;;;;;;5041639;28;20100;-73
2022/08/05 06:52:24;;;;;;;9.27;5.13;;;17.70;99.90;;;;;;5036895;28;20043;-73
2022/08/05 06:54:49;;;;;;;10.30;5.90;;;17.70;99.90;;;;;;5030556;28;20041;-73
2022/08/05 06:57:17;;;;;;;8.68;5.40;;;17.80;99.90;;;;;;5013005;28;20510;-73
2022/08/05 06:59:42;;;;;;;9.82;5.40;;;17.80;99.90;;;;;;5030209;28;20037;-73
2022/08/05 07:02:09;;;;;;;9.05;5.32;;;17.90;99.90;;;;;;5045557;28;20045;-73
2022/08/05 07:04:35;;;;;;;9.57;5.30;;;17.90;99.90;;;;;;5028877;28;20449;-73
2022/08/05 07:07:00;;;;;;;8.35;4.78;;;18.00;99.90;;;;;;5028928;28;20094;-72
2022/08/05 07:09:26;;;;;;;9.88;4.47;;;18.00;99.90;;;;;;5030504;28;20037;-73
2022/08/05 07:11:54;;;;;;;8.20;4.65;;;18.00;99.90;;;;;;5055683;28;20229;-73
2022/08/05 07:17:05;;;;;;;6.18;4.28;;;18.00;99.90;;;;;;5075157;28;20068;-72
2022/08/05 07:19:31;;;;;;;8.77;4.53;;;18.00;99.90;;;;;;5070241;28;20489;-73
2022/08/05 07:21:57;;;;;;;6.97;4.15;;;18.00;99.90;;;;;;5036031;28;20045;-73
2022/08/05 07:24:23;;;;;;;8.13;4.18;;;18.10;99.90;;;;;;5030811;28;20029;-72
2022/08/05 07:26:49;;;;;;;6.28;4.07;;;18.10;99.90;;;;;;5038316;28;20037;-73
2022/08/05 07:29:15;;;;;;;8.18;4.03;;;18.10;99.90;;;;;;5069398;28;20476;-73
2022/08/05 07:31:42;;;;;;;5.45;4.20;;;18.10;99.90;;;;;;5036050;28;20053;-73
2022/08/05 07:34:08;;;;;;;5.18;3.95;;;18.20;99.90;;;;;;5039554;28;20045;-73
2022/08/05 07:36:34;;;;;;;6.90;3.80;;;18.20;99.90;;;;;;5051628;28;20499;-73
2022/08/05 07:39:02;;;;;;;5.32;3.65;;;18.20;99.90;;;;;;5020307;28;20151;-72
2022/08/05 07:41:27;;;;;;;5.53;3.47;;;18.20;99.90;;;;;;5034172;28;20075;-72
2022/08/05 07:43:55;;;;;;;7.10;3.60;;;18.30;99.90;;;;;;5033932;28;20491;-72
2022/08/05 07:46:21;;;;;;;7.20;4.22;;;18.30;99.90;;;;;;5017890;28;20049;-73
2022/08/05 07:48:47;;;;;;;3.90;3.25;;;18.40;99.90;;;;;;5051344;28;20045;-72
2022/08/05 07:51:14;;;;;;;6.60;3.78;;;18.30;99.90;;;;;;5034758;28;20042;-72
2022/08/05 07:53:41;;;;;;;6.03;3.47;;;18.50;99.90;;;;;;5019516;28;20045;-73
2022/08/05 07:56:07;;;;;;;6.20;4.10;;;18.60;99.90;;;;;;5035401;28;20116;-72
2022/08/05 07:58:32;;;;;;;5.63;3.60;;;18.60;99.90;;;;;;5034563;28;20565;-72
2022/08/05 08:00:58;;;;;;;6.90;3.88;;;18.70;99.90;;;;;;5034789;28;20166;-72
2022/08/05 08:03:24;;;;;;;4.80;3.38;;;18.70;99.90;;;;;;5033991;28;20352;-72
2022/08/05 08:05:51;;;;;;;8.18;3.55;;;18.80;99.90;;;;;;5035421;28;20271;-72
2022/08/05 08:08:17;;;;;;;5.95;3.38;;;18.80;99.90;;;;;;5018501;28;20503;-72
2022/08/05 08:10:43;;;;;;;3.83;2.90;;;18.90;99.90;;;;;;5047932;28;20095;-72
2022/08/05 08:13:09;;;;;;;6.68;3.20;;;18.90;99.90;;;;;;5031755;28;20481;-72
2022/08/05 08:15:35;;;;;;;8.15;3.22;;;18.90;99.90;;;;;;5035354;28;20489;-73
2022/08/05 08:18:01;;;;;;;8.52;3.33;;;19.10;99.90;;;;;;5021778;28;20037;-73
2022/08/05 08:20:27;;;;;;;6.28;3.28;;;19.20;99.90;;;;;;5021649;28;20048;-72
2022/08/05 08:22:55;;;;;;;6.95;2.90;;;19.20;99.90;;;;;;5023308;28;20041;-72
2022/08/05 08:25:22;;;;;;;3.42;2.58;;;19.20;99.90;;;;;;5055245;28;20132;-72
2022/08/05 08:27:47;;;;;;;4.47;2.47;;;19.30;99.90;;;;;;5038999;28;20034;-72
2022/08/05 08:30:14;;;;;;;4.63;2.70;;;19.30;99.90;;;;;;5020665;28;20500;-72
2022/08/05 08:32:40;;;;;;;3.67;2.65;;;19.30;99.90;;;;;;5037491;28;20047;-72
2022/08/05 08:35:07;;;;;;;4.55;2.92;;;19.30;99.90;;;;;;5038013;28;20529;-72
2022/08/05 08:37:33;;;;;;;4.63;2.75;;;19.40;99.90;;;;;;5055941;28;20035;-72
2022/08/05 08:40:00;;;;;;;7.00;2.90;;;19.40;99.90;;;;;;5021806;28;20041;-72
2022/08/05 08:42:26;;;;;;;5.75;3.00;;;19.50;99.90;;;;;;5021597;28;20052;-72
2022/08/05 08:44:56;;;;;;;5.03;2.55;;;19.60;99.90;;;;;;5038532;28;20048;-72
2022/08/05 08:47:24;;;;;;;4.75;2.08;;;19.70;99.90;;;;;;5038410;28;20593;-72
2022/08/05 08:49:52;;;;;;;4.43;2.88;;;19.70;99.90;;;;;;5038159;28;21108;-72
2022/08/05 08:52:39;;;;;;;4.07;2.60;;;19.60;99.90;;;;;;5039370;28;20029;-72
2022/08/05 08:55:06;;;;;;;5.22;2.63;;;19.60;99.90;;;;;;5004588;28;20077;-72
2022/08/05 08:57:33;;;;;;;5.10;2.20;;;19.70;99.90;;;;;;5037024;28;20133;-72
2022/08/05 09:00:00;;;;;;;4.05;2.10;;;19.60;99.90;;;;;;5054619;28;20098;-72
2022/08/05 09:02:26;;;;;;;4.75;2.35;;;19.60;99.90;;;;;;5039176;28;20096;-72
2022/08/05 09:04:52;;;;;;;4.85;2.20;;;19.60;99.90;;;;;;5037759;28;20041;-71
2022/08/05 09:07:18;;;;;;;3.65;1.90;;;19.60;99.90;;;;;;5037374;28;20096;-72
2022/08/05 09:09:44;;;;;;;2.88;2.00;;;19.60;99.90;;;;;;5039248;28;20041;-72
2022/08/05 09:12:09;;;;;;;2.13;1.52;;;19.60;99.90;;;;;;5020779;28;20052;-71
2022/08/05 09:14:36;;;;;;;1.98;1.70;;;19.60;99.90;;;;;;5037080;28;20037;-72
2022/08/05 09:17:07;;;;;;;4.65;2.10;;;19.60;99.90;;;;;;5039110;28;20037;-71
2022/08/05 09:19:34;;;;;;;3.67;2.00;;;19.60;99.90;;;;;;5037031;28;20033;-71
2022/08/05 09:21:59;;;;;;;3.40;2.00;;;19.70;99.90;;;;;;5038046;28;20045;-70
2022/08/05 09:24:25;;;;;;;7.18;2.28;;;19.70;99.90;;;;;;5019643;28;20103;-71
2022/08/05 09:26:55;;;;;;;3.28;1.90;;;19.70;99.90;;;;;;5020414;28;20045;-71
2022/08/05 09:29:35;;;;;;;3.00;1.80;;;19.80;99.90;;;;;;5004855;28;20072;-71
2022/08/05 09:32:06;;;;;;;3.63;1.95;;;19.80;99.90;;;;;;5019466;28;20530;-71
2022/08/05 09:34:54;;;;;;;3.97;1.85;;;19.90;99.90;;;;;;5036707;28;20614;-71
2022/08/05 09:37:22;;;;;;;2.70;1.63;;;20.00;99.90;;;;;;5054432;28;20064;-71
2022/08/05 09:39:48;;;;;;;3.60;1.70;;;20.00;99.90;;;;;;5038062;28;20049;-71
2022/08/05 09:42:19;;;;;;;2.03;1.73;;;20.10;99.90;;;;;;5036659;28;20064;-72
2022/08/05 09:44:48;;;;;;;3.45;1.92;;;20.10;99.90;;;;;;5054790;28;20037;-72
2022/08/05 09:47:15;;;;;;;3.42;1.75;;;20.20;99.90;;;;;;5056076;28;20075;-72
2022/08/05 09:49:46;;;;;;;2.95;1.45;;;20.20;99.90;;;;;;5024188;28;20406;-72
2022/08/05 09:52:21;;;;;;;3.58;1.58;;;20.30;99.90;;;;;;5023945;28;20424;-72
2022/08/05 09:55:09;;;;;;;3.08;1.95;;;20.30;99.90;;;;;;5039892;28;20045;-72
2022/08/05 09:57:40;;;;;;;5.80;1.85;;;20.30;99.90;;;;;;5056064;28;20103;-72
2022/08/05 10:00:23;;;;;;;3.45;1.58;;;20.30;99.90;;;;;;5021979;28;20071;-72
2022/08/05 10:02:53;;;;;;;3.50;1.58;;;20.40;99.90;;;;;;5040441;28;20476;-72
2022/08/05 10:05:22;;;;;;;3.10;1.55;;;20.40;99.90;;;;;;5022975;28;20097;-72
2022/08/05 10:07:51;;;;;;;2.22;1.58;;;20.50;99.90;;;;;;5039232;28;20586;-72
2022/08/05 10:10:19;;;;;;;1.70;1.33;;;20.50;99.90;;;;;;5023280;28;20045;-72
2022/08/05 10:12:52;;;;;;;4.30;1.75;;;20.50;99.90;;;;;;5056001;28;21127;-72
2022/08/05 10:15:27;;;;;;;3.85;1.50;;;20.60;99.90;;;;;;5055880;28;20112;-72
2022/08/05 10:18:10;;;;;;;2.70;1.60;;;20.80;99.90;;;;;;5056132;28;20040;-72
2022/08/05 10:20:45;;;;;;;3.83;1.48;;;21.10;99.90;;;;;;5039708;28;20049;-72
2022/08/05 10:23:13;;;;;;;2.65;1.50;;;21.40;99.90;;;;;;5056133;28;20508;-72
2022/08/05 10:25:39;;;;;;;4.60;1.15;;;21.60;99.90;;;;;;5039922;28;20808;-72
2022/08/05 10:28:08;;;;;;;3.67;1.20;;;21.60;99.90;;;;;;5023360;28;20037;-72
2022/08/05 10:30:35;;;;;;;2.10;1.10;;;21.70;99.90;;;;;;5038948;28;20383;-71
2022/08/05 10:33:01;;;;;;;3.78;1.20;;;21.80;99.90;;;;;;5022781;28;20046;-72
2022/08/05 10:35:27;;;;;;;1.58;0.85;;;22.00;98.30;;;;;;5055591;28;20060;-72
2022/08/05 10:37:54;;;;;;;2.95;1.00;;;22.10;97.70;;;;;;5022977;28;20057;-72
2022/08/05 10:40:42;;;;;;;3.58;1.05;;;22.10;97.50;;;;;;5038724;28;20103;-72
2022/08/05 10:43:26;;;;;;;2.78;1.10;;;22.00;95.40;;;;;;5022719;28;20060;-73
2022/08/05 10:46:06;;;;;;;2.25;1.10;;;21.90;97.10;;;;;;5023873;28;20044;-70
2022/08/05 10:48:38;;;;;;;2.13;1.02;;;21.90;95.60;;;;;;5053863;28;20041;-70
2022/08/05 10:51:15;;;;;;;2.00;0.88;;;22.10;96.30;;;;;;5054931;28;20041;-73
2022/08/05 10:53:50;;;;;;;3.58;1.20;;;22.40;94.80;;;;;;5021250;28;20033;-72
2022/08/05 10:56:41;;;;;;;2.38;0.90;;;22.30;94.10;;;;;;5054110;28;20079;-72
2022/08/05 10:59:07;;;;;;;3.33;1.40;;;22.30;93.10;;;;;;5017744;28;20234;-71
2022/08/05 11:01:34;;;;;;;1.08;0.80;;;22.30;93.10;;;;;;5019835;28;20094;-71
2022/08/05 11:04:00;;;;;;;3.10;1.05;;;22.40;92.70;;;;;;5019433;28;20046;-72
2022/08/05 11:06:25;;;;;;;1.13;0.80;;;22.50;92.00;;;;;;5019032;28;20041;-72
2022/08/05 11:09:20;;;;;;;1.80;0.93;;;22.60;91.30;;;;;;5018660;28;20050;-72
2022/08/05 11:11:48;;;;;;;6.22;0.70;;;22.60;89.20;;;;;;5052053;28;20069;-71
2022/08/05 11:14:27;;;;;;;3.90;0.90;;;22.50;88.60;;;;;;5036571;28;20041;-71
2022/08/05 11:17:24;;;;;;;4.78;0.85;;;22.70;84.10;;;;;;5052636;28;20041;-71
2022/08/05 11:19:52;;;;;;;0.88;0.70;;;22.80;84.90;;;;;;5035222;28;20131;-74
2022/08/05 11:22:40;;;;;;;1.55;0.60;;;22.90;84.30;;;;;;5018809;28;20265;-73
2022/08/05 11:25:37;;;;;;;3.05;0.80;;;23.20;82.80;;;;;;5002410;28;20341;-71
2022/08/05 11:28:12;;;;;;;4.97;0.93;;;23.30;82.00;;;;;;5054074;28;20053;-74
2022/08/05 11:30:56;;;;;;;1.50;0.80;;;23.40;80.20;;;;;;5021711;28;20068;-71
2022/08/05 11:33:30;;;;;;;6.05;1.92;;;23.50;79.30;;;;;;5038693;28;20048;-72
2022/08/05 11:36:00;;;;;;;3.42;1.00;;;23.50;82.10;;;;;;5021449;28;20092;-72
2022/08/05 11:38:38;;;;;;;6.10;0.57;;;23.70;80.80;;;;;;5053746;28;20049;-74
2022/08/05 11:41:08;;;;;;;1.98;0.55;;;23.70;78.80;;;;;;5017359;28;20049;-72
2022/08/05 11:43:34;;;;;;;2.58;0.57;;;23.80;75.80;;;;;;5064336;28;20122;-73
2022/08/05 11:46:00;;;;;;;2.70;0.50;;;23.70;73.50;;;;;;5037414;28;20079;-72
2022/08/05 11:48:27;;;;;;;1.15;0.50;;;23.80;72.20;;;;;;5036341;28;20068;-71
2022/08/05 11:50:54;;;;;;;0.50;0.30;;;23.80;71.20;;;;;;5036065;28;20095;-72
2022/08/05 11:53:20;;;;;;;2.00;0.60;;;23.70;68.50;;;;;;5032649;28;20617;-71
2022/08/05 11:56:00;;;;;;;0.65;0.57;;;23.70;67.90;;;;;;5032715;28;20052;-71
2022/08/05 11:58:30;;;;;;;1.60;0.60;;;23.60;66.10;;;;;;5015529;28;20033;-72
2022/08/05 12:01:07;;;;;;;4.47;0.77;;;23.50;66.80;;;;;;5032592;28;20037;-72
2022/08/05 12:03:48;;;;;;;4.72;0.80;;;23.60;65.00;;;;;;5048894;28;20107;-72
2022/08/05 12:06:15;;;;;;;2.30;0.40;;;23.70;64.70;;;;;;5032461;28;20133;-71
2022/08/05 12:08:46;;;;;;;2.05;0.50;;;23.80;64.80;;;;;;5032191;28;20498;-72
2022/08/05 12:11:19;;;;;;;1.13;0.60;;;23.70;64.50;;;;;;5049038;28;20042;-71
2022/08/05 12:14:11;;;;;;;1.45;0.70;;;23.60;63.90;;;;;;5032165;28;20041;-71
2022/08/05 12:16:40;;;;;;;1.67;0.88;;;23.50;61.80;;;;;;5015519;28;20499;-72
2022/08/05 12:19:08;;;;;;;0.80;0.70;;;23.50;64.50;;;;;;5032017;28;20040;-71
2022/08/05 12:21:41;;;;;;;1.95;0.60;;;23.50;65.60;;;;;;5041362;28;20406;-72
2022/08/05 12:24:10;;;;;;;1.00;0.50;;;23.50;66.20;;;;;;5058152;28;20040;-73
2022/08/05 12:26:38;;;;;;;2.95;0.60;;;23.40;66.50;;;;;;5040380;28;20037;-73
2022/08/05 12:29:06;;;;;;;2.70;0.60;;;23.40;66.50;;;;;;5055813;28;20060;-72
2022/08/05 12:31:33;;;;;;;4.43;0.60;;;23.20;66.30;;;;;;5034607;28;20443;-72
2022/08/05 12:34:04;;;;;;;18.60;1.27;;;23.20;66.20;;;;;;5021452;28;20045;-74
2022/08/05 12:36:31;;;;;;;2.08;0.77;;;23.20;67.00;;;;;;5031264;28;20090;-73
2022/08/05 12:38:58;;;;;;;1.92;0.63;;;23.40;68.20;;;;;;5053859;28;20398;-74
2022/08/05 12:41:30;;;;;;;2.20;0.57;;;23.60;68.40;;;;;;5036349;28;20579;-74
2022/08/05 12:43:58;;;;;;;5.43;0.70;;;23.60;67.30;;;;;;5016212;28;20542;-75
2022/08/05 12:46:26;;;;;;;1.58;0.75;;;23.50;67.70;;;;;;5009988;28;20038;-76
2022/08/05 12:49:07;;;;;;;0.68;0.60;;;23.50;68.70;;;;;;5065186;28;20132;-76
2022/08/05 12:51:42;;;;;;;0.50;0.50;;;23.50;69.00;;;;;;5065067;28;20037;-76
2022/08/05 12:54:08;;;;;;;1.63;0.50;;;23.60;68.30;;;;;;5018766;28;20419;-75
2022/08/05 12:56:40;;;;;;;0.98;0.38;;;23.70;69.20;;;;;;5030293;28;20280;-76